createdAt,value
2023-05-03T00:02:27.267Z,35.31
2023-05-03T00:04:57.202Z,35.92
2023-05-03T00:07:24.940Z,36.76
2023-05-03T00:09:52.650Z,38.28
2023-05-03T00:12:20.278Z,36.80
2023-05-03T00:14:47.991Z,37.04
2023-05-03T00:17:15.780Z,35.80
2023-05-03T00:19:43.520Z,34.14
2023-05-03T00:22:12.716Z,34.95
2023-05-03T00:24:40.358Z,37.22
2023-05-03T00:27:08.145Z,37.96
2023-05-03T00:29:35.787Z,38.93
2023-05-03T00:32:04.258Z,39.19
2023-05-03T00:34:34.868Z,38.58
2023-05-03T00:37:02.493Z,37.85
2023-05-03T00:39:32.263Z,36.46
2023-05-03T00:42:00.081Z,37.17
2023-05-03T00:44:27.911Z,38.04
2023-05-03T00:46:55.822Z,40.81
2023-05-03T00:49:23.857Z,39.71
2023-05-03T00:51:51.956Z,39.44
2023-05-03T00:54:19.645Z,37.55
2023-05-03T00:56:52.414Z,37.07
2023-05-03T00:59:20.672Z,37.08
2023-05-03T01:01:51.345Z,37.15
2023-05-03T01:04:19.696Z,38.48
2023-05-03T01:06:49.681Z,38.98
2023-05-03T01:09:18.881Z,39.34
2023-05-03T01:11:49.631Z,39.17
2023-05-03T01:14:28.725Z,37.26
2023-05-03T01:16:58.103Z,39.04
2023-05-03T01:19:28.468Z,40.12
2023-05-03T01:21:58.080Z,38.98
2023-05-03T01:24:26.053Z,38.62
2023-05-03T01:26:55.075Z,40.55
2023-05-03T01:29:22.704Z,39.44
2023-05-03T01:31:51.711Z,41.07
2023-05-03T01:34:21.814Z,42.32
2023-05-03T01:36:49.967Z,40.19
2023-05-03T01:39:19.986Z,38.19
2023-05-03T01:41:48.021Z,38.60
2023-05-03T01:44:17.142Z,37.66
2023-05-03T01:46:44.943Z,40.95
2023-05-03T01:49:12.790Z,41.24
2023-05-03T01:51:40.529Z,41.69
2023-05-03T01:54:08.274Z,40.91
2023-05-03T01:56:36.533Z,41.07
2023-05-03T01:59:04.312Z,41.14
2023-05-03T02:01:33.562Z,41.11
2023-05-03T02:04:01.626Z,40.07
2023-05-03T02:06:29.332Z,40.38
2023-05-03T02:09:00.449Z,40.07
2023-05-03T02:11:28.084Z,44.08
2023-05-03T02:13:55.771Z,43.35
2023-05-03T02:16:23.455Z,42.25
2023-05-03T02:18:54.397Z,43.37
2023-05-03T02:21:22.102Z,39.93
2023-05-03T02:23:49.695Z,42.17
2023-05-03T02:26:17.353Z,42.56
2023-05-03T02:28:45.012Z,42.15
2023-05-03T02:31:13.529Z,41.86
2023-05-03T02:33:43.317Z,42.39
2023-05-03T02:36:13.751Z,42.87
2023-05-03T02:38:41.348Z,41.06
2023-05-03T02:41:09.033Z,42.72
2023-05-03T02:43:36.694Z,42.77
2023-05-03T02:46:04.541Z,41.35
2023-05-03T02:48:32.314Z,43.82
2023-05-03T02:50:59.993Z,43.20
2023-05-03T02:53:29.633Z,44.27
2023-05-03T02:56:00.857Z,44.35
2023-05-03T02:58:28.817Z,47.58
2023-05-03T03:00:57.396Z,46.81
2023-05-03T03:03:29.356Z,44.74
2023-05-03T03:05:57.127Z,45.89
2023-05-03T03:08:24.781Z,46.41
2023-05-03T03:10:54.375Z,46.95
2023-05-03T03:13:21.985Z,46.37
2023-05-03T03:15:49.759Z,43.81
2023-05-03T03:18:19.742Z,44.89
2023-05-03T03:20:47.688Z,43.07
2023-05-03T03:23:15.743Z,44.40
2023-05-03T03:25:43.948Z,41.31
2023-05-03T03:28:12.978Z,44.21
2023-05-03T03:30:40.837Z,43.86
2023-05-03T03:33:18.488Z,44.65
2023-05-03T03:35:46.492Z,42.31
2023-05-03T03:38:14.143Z,41.23
2023-05-03T03:40:49.861Z,42.01
2023-05-03T03:43:19.030Z,40.03
2023-05-03T03:45:48.318Z,44.27
2023-05-03T03:48:17.457Z,42.86
2023-05-03T03:50:45.170Z,42.53
2023-05-03T03:53:14.254Z,44.37
2023-05-03T03:55:42.061Z,44.07
2023-05-03T03:58:10.080Z,44.45
2023-05-03T04:00:39.997Z,42.87
2023-05-03T04:03:13.876Z,46.01
2023-05-03T04:05:42.389Z,45.26
2023-05-03T04:08:10.597Z,46.26
2023-05-03T04:10:39.352Z,45.82
2023-05-03T04:13:07.124Z,45.95
2023-05-03T04:15:35.316Z,46.16
2023-05-03T04:18:06.760Z,46.37
2023-05-03T04:20:37.712Z,45.44
2023-05-03T04:23:07.421Z,44.36
2023-05-03T04:25:36.981Z,45.29
2023-05-03T04:28:10.595Z,46.07
2023-05-03T04:30:43.399Z,43.14
2023-05-03T04:33:12.951Z,42.33
2023-05-03T04:35:42.857Z,43.26
2023-05-03T04:38:14.642Z,44.00
2023-05-03T04:40:42.331Z,46.43
2023-05-03T04:43:14.423Z,46.47
2023-05-03T04:45:45.763Z,45.81
2023-05-03T04:48:22.359Z,46.17
2023-05-03T04:50:50.141Z,44.75
2023-05-03T04:53:21.909Z,44.32
2023-05-03T04:56:01.351Z,44.06
2023-05-03T04:58:31.173Z,48.04
2023-05-03T05:00:59.239Z,43.67
2023-05-03T05:03:32.496Z,46.11
2023-05-03T05:06:03.930Z,42.95
2023-05-03T05:08:33.114Z,41.64
2023-05-03T05:11:02.364Z,41.57
2023-05-03T05:13:31.964Z,42.90
2023-05-03T05:16:02.805Z,44.74
2023-05-03T05:18:32.492Z,43.99
2023-05-03T05:21:03.366Z,45.40
2023-05-03T05:23:36.228Z,43.98
2023-05-03T05:26:04.654Z,42.38
2023-05-03T05:28:33.345Z,44.86
2023-05-03T05:31:01.849Z,44.14
2023-05-03T05:33:30.498Z,43.20
2023-05-03T05:36:00.622Z,41.14
2023-05-03T05:38:28.344Z,41.65
2023-05-03T05:40:59.107Z,41.01
2023-05-03T05:43:26.730Z,42.95
2023-05-03T05:45:56.578Z,40.00
2023-05-03T05:48:24.561Z,41.45
2023-05-03T05:50:52.214Z,42.30
2023-05-03T05:53:21.227Z,42.12
2023-05-03T05:55:57.786Z,39.32
2023-05-03T05:58:27.145Z,40.06
2023-05-03T06:00:58.835Z,39.60
2023-05-03T06:03:26.990Z,38.59
2023-05-03T06:05:54.845Z,39.74
2023-05-03T06:08:23.843Z,38.20
2023-05-03T06:10:52.897Z,38.70
2023-05-03T06:13:21.475Z,36.87
2023-05-03T06:15:50.555Z,37.63
2023-05-03T06:18:19.141Z,40.34
2023-05-03T06:20:49.633Z,37.03
2023-05-03T06:23:18.569Z,35.89
2023-05-03T06:25:48.648Z,37.11
2023-05-03T06:28:17.789Z,37.66
2023-05-03T06:30:49.285Z,36.79
2023-05-03T06:33:17.502Z,36.16
2023-05-03T06:35:48.202Z,36.88
2023-05-03T06:38:17.576Z,35.04
2023-05-03T06:40:45.977Z,34.67
2023-05-03T06:43:18.028Z,35.60
2023-05-03T06:45:52.198Z,33.71
2023-05-03T06:48:19.929Z,35.04
2023-05-03T06:50:47.698Z,37.52
2023-05-03T06:53:15.911Z,36.94
2023-05-03T06:55:44.504Z,36.48
2023-05-03T06:58:12.179Z,38.95
2023-05-03T07:00:41.209Z,35.62
2023-05-03T07:03:08.962Z,37.05
2023-05-03T07:05:36.710Z,37.27
2023-05-03T07:08:04.611Z,35.28
2023-05-03T07:10:32.242Z,32.77
2023-05-03T07:12:59.869Z,32.67
2023-05-03T07:15:27.510Z,35.47
2023-05-03T07:17:58.783Z,33.35
2023-05-03T07:20:26.821Z,34.03
2023-05-03T07:22:54.441Z,35.87
2023-05-03T07:25:22.123Z,36.88
2023-05-03T07:27:49.790Z,35.68
2023-05-03T07:30:17.719Z,35.80
2023-05-03T07:32:45.443Z,36.02
2023-05-03T07:35:16.693Z,34.04
2023-05-03T07:37:44.845Z,33.88
2023-05-03T07:40:13.008Z,37.21
2023-05-03T07:42:40.693Z,37.25
2023-05-03T07:45:08.980Z,36.12
2023-05-03T07:47:38.190Z,32.85
2023-05-03T07:50:06.571Z,34.85
2023-05-03T07:52:38.121Z,35.18
2023-05-03T07:55:06.743Z,34.71
2023-05-03T07:57:34.439Z,34.37
2023-05-03T08:00:02.293Z,34.46
2023-05-03T08:02:40.335Z,33.62
2023-05-03T08:05:09.698Z,34.25
2023-05-03T08:07:38.987Z,35.24
2023-05-03T08:10:07.147Z,32.15
2023-05-03T08:12:34.826Z,32.00
2023-05-03T08:15:04.934Z,33.38
2023-05-03T08:17:32.674Z,33.66
2023-05-03T08:20:00.486Z,31.33
2023-05-03T08:22:28.124Z,30.76
2023-05-03T08:24:57.105Z,30.80
2023-05-03T08:27:28.598Z,32.26
2023-05-03T08:29:56.737Z,31.75
2023-05-03T08:32:27.148Z,30.62
2023-05-03T08:34:55.176Z,31.65
2023-05-03T08:37:22.866Z,31.67
2023-05-03T08:39:51.236Z,33.11
2023-05-03T08:42:20.269Z,31.38
2023-05-03T08:44:49.430Z,33.51
2023-05-03T08:47:17.378Z,33.39
2023-05-03T08:49:45.424Z,33.35
2023-05-03T08:52:13.453Z,33.41
2023-05-03T08:54:41.543Z,33.72
2023-05-03T08:57:10.895Z,33.87
2023-05-03T08:59:48.712Z,32.08
2023-05-03T09:02:16.729Z,31.65
2023-05-03T09:04:44.408Z,32.39
2023-05-03T09:07:12.419Z,32.28
2023-05-03T09:09:40.127Z,30.37
2023-05-03T09:12:07.780Z,30.05
2023-05-03T09:14:42.978Z,30.39
2023-05-03T09:17:19.163Z,31.63
2023-05-03T09:19:53.648Z,32.52
2023-05-03T09:22:21.325Z,30.26
2023-05-03T09:24:55.168Z,30.28
2023-05-03T09:27:23.151Z,30.38
2023-05-03T09:29:50.916Z,28.87
2023-05-03T09:32:20.152Z,28.61
2023-05-03T09:34:48.044Z,29.90
2023-05-03T09:37:15.719Z,30.27
2023-05-03T09:39:43.936Z,30.60
2023-05-03T09:42:12.087Z,31.89
2023-05-03T09:44:43.447Z,29.98
2023-05-03T09:47:11.493Z,28.76
2023-05-03T09:49:40.658Z,31.40
2023-05-03T09:52:08.761Z,31.64
2023-05-03T09:54:36.485Z,31.84
2023-05-03T09:57:04.869Z,30.77
2023-05-03T09:59:32.813Z,28.92
2023-05-03T10:02:02.061Z,28.31
2023-05-03T10:04:30.173Z,29.17
2023-05-03T10:07:01.487Z,29.95
2023-05-03T10:09:30.818Z,29.42
2023-05-03T10:12:02.106Z,30.13
2023-05-03T10:14:29.843Z,28.55
2023-05-03T10:16:59.468Z,30.53
2023-05-03T10:19:30.742Z,30.33
2023-05-03T10:22:04.502Z,29.87
2023-05-03T10:24:32.188Z,29.03
2023-05-03T10:26:59.825Z,27.77
2023-05-03T10:29:48.685Z,30.75
2023-05-03T10:32:34.997Z,31.85
2023-05-03T10:35:04.366Z,29.65
2023-05-03T10:37:34.577Z,30.20
2023-05-03T10:40:10.132Z,31.40
2023-05-03T10:42:38.002Z,31.73
2023-05-03T10:45:07.773Z,30.25
2023-05-03T10:47:35.792Z,29.32
2023-05-03T10:50:22.255Z,30.32
2023-05-03T10:52:51.433Z,29.75
2023-05-03T10:55:20.770Z,31.28
2023-05-03T10:57:48.836Z,28.02
2023-05-03T11:00:22.136Z,29.68
2023-05-03T11:03:03.719Z,31.46
2023-05-03T11:05:34.963Z,31.49
2023-05-03T11:08:10.607Z,29.34
2023-05-03T11:10:38.328Z,30.09
2023-05-03T11:13:06.634Z,30.07
2023-05-03T11:15:34.587Z,28.36
2023-05-03T11:18:04.247Z,29.21
2023-05-03T11:20:31.906Z,29.37
2023-05-03T11:22:59.585Z,29.15
2023-05-03T11:25:28.598Z,27.57
2023-05-03T11:27:56.285Z,27.20
2023-05-03T11:30:23.870Z,26.61
2023-05-03T11:32:51.537Z,29.65
2023-05-03T11:35:19.800Z,27.39
2023-05-03T11:37:47.497Z,28.04
2023-05-03T11:40:16.104Z,25.26
2023-05-03T11:42:54.238Z,25.34
2023-05-03T11:45:23.391Z,25.04
2023-05-03T11:47:51.518Z,23.19
2023-05-03T11:50:19.333Z,19.79
2023-05-03T11:52:48.024Z,19.32
2023-05-03T11:55:17.828Z,21.88
2023-05-03T11:57:45.677Z,23.17
2023-05-03T12:00:17.486Z,22.88
2023-05-03T12:02:45.764Z,24.30
2023-05-03T12:05:14.298Z,21.99
2023-05-03T12:07:42.587Z,20.05
2023-05-03T12:10:19.374Z,18.75
2023-05-03T12:12:55.741Z,19.85
2023-05-03T12:15:33.824Z,20.57
2023-05-03T12:18:04.516Z,21.12
2023-05-03T12:23:04.512Z,17.25
2023-05-03T12:25:33.800Z,17.75
2023-05-03T12:28:18.595Z,19.40
2023-05-03T12:30:52.909Z,21.34
2023-05-03T12:33:22.785Z,18.71
2023-05-03T12:35:53.370Z,17.22
2023-05-03T12:38:23.993Z,17.30
2023-05-03T12:40:53.135Z,19.16
2023-05-03T12:43:21.050Z,20.77
2023-05-03T12:46:01.912Z,18.10
2023-05-03T12:48:37.560Z,21.39
2023-05-03T12:53:38.813Z,21.62
2023-05-03T12:56:07.518Z,20.05
2023-05-03T12:58:57.972Z,20.92
2023-05-03T13:06:28.208Z,16.15
2023-05-03T13:09:00.076Z,17.06
2023-05-03T13:11:31.065Z,18.49
2023-05-03T13:13:59.454Z,19.62
2023-05-03T13:16:28.501Z,21.54
2023-05-03T13:18:56.613Z,18.49
2023-05-03T13:21:24.526Z,15.36
2023-05-03T13:23:52.175Z,14.49
2023-05-03T13:26:19.825Z,12.85
2023-05-03T13:28:47.471Z,12.59
2023-05-03T13:31:15.146Z,12.12
2023-05-03T13:33:44.169Z,11.68
2023-05-03T13:36:12.163Z,14.41
2023-05-03T13:38:41.807Z,13.22
2023-05-03T13:41:09.507Z,13.85
2023-05-03T13:43:37.223Z,14.49
2023-05-03T13:46:04.969Z,15.92
2023-05-03T13:48:32.766Z,13.70
2023-05-03T13:51:01.908Z,12.36
2023-05-03T13:53:29.545Z,12.48
2023-05-03T13:55:57.141Z,11.47
2023-05-03T13:58:24.874Z,11.97
2023-05-03T14:00:52.630Z,11.77
2023-05-03T14:03:22.806Z,10.28
2023-05-03T14:05:50.624Z,10.93
2023-05-03T14:08:19.737Z,10.95
2023-05-03T14:10:47.340Z,9.85
2023-05-03T14:13:15.137Z,10.14
2023-05-03T14:15:43.171Z,10.31
2023-05-03T14:18:11.146Z,9.82
2023-05-03T14:20:38.844Z,10.18
2023-05-03T14:23:11.719Z,9.25
2023-05-03T14:25:44.930Z,9.80
2023-05-03T14:28:12.665Z,9.31
2023-05-03T14:30:40.343Z,9.56
2023-05-03T14:33:10.044Z,10.21
2023-05-03T14:35:37.864Z,10.39
2023-05-03T14:38:06.145Z,10.64
2023-05-03T14:40:33.754Z,10.25
2023-05-03T14:43:02.763Z,10.78
2023-05-03T14:45:30.398Z,10.09
2023-05-03T14:47:58.102Z,10.38
2023-05-03T14:50:25.785Z,9.34
2023-05-03T14:52:53.491Z,9.73
2023-05-03T14:55:21.286Z,9.92
2023-05-03T14:57:48.930Z,10.73
2023-05-03T15:00:18.481Z,10.42
2023-05-03T15:02:46.702Z,9.81
2023-05-03T15:05:14.518Z,9.72
2023-05-03T15:07:42.328Z,9.41
2023-05-03T15:10:10.145Z,9.31
2023-05-03T15:12:38.990Z,9.12
2023-05-03T15:15:08.016Z,8.81
2023-05-03T15:17:37.522Z,9.32
2023-05-03T15:20:05.846Z,9.57
2023-05-03T15:22:36.149Z,9.49
2023-05-03T15:25:04.539Z,10.15
2023-05-03T15:27:32.382Z,9.59
2023-05-03T15:30:00.050Z,9.74
2023-05-03T15:32:28.028Z,9.40
2023-05-03T15:34:57.774Z,9.30
2023-05-03T15:37:28.518Z,9.32
2023-05-03T15:39:56.323Z,9.18
2023-05-03T15:42:24.031Z,8.69
2023-05-03T15:44:52.122Z,9.56
2023-05-03T15:47:19.757Z,10.61
2023-05-03T15:49:47.723Z,12.26
2023-05-03T15:52:17.020Z,12.91
2023-05-03T15:54:44.713Z,13.25
2023-05-03T15:57:12.984Z,14.09
2023-05-03T15:59:40.694Z,14.15
2023-05-03T16:02:08.941Z,14.35
2023-05-03T16:04:38.225Z,14.76
2023-05-03T16:07:05.950Z,14.82
2023-05-03T16:09:34.995Z,15.05
2023-05-03T16:12:02.985Z,15.30
2023-05-03T16:14:30.725Z,15.23
2023-05-03T16:17:00.332Z,15.43
2023-05-03T16:19:28.094Z,15.92
2023-05-03T16:21:55.740Z,15.78
2023-05-03T16:24:23.375Z,16.25
2023-05-03T16:26:52.997Z,16.63
2023-05-03T16:29:22.327Z,15.88
2023-05-03T16:31:50.110Z,15.71
2023-05-03T16:34:17.836Z,17.59
2023-05-03T16:36:45.461Z,17.65
2023-05-03T16:39:13.599Z,18.41
2023-05-03T16:41:41.303Z,18.64
2023-05-03T16:44:10.264Z,18.62
2023-05-03T16:46:38.516Z,17.34
2023-05-03T16:49:06.397Z,15.64
2023-05-03T16:51:34.075Z,13.48
2023-05-03T16:54:04.248Z,13.61
2023-05-03T16:56:32.216Z,12.54
2023-05-03T16:59:00.009Z,12.46
2023-05-03T17:01:30.951Z,12.51
2023-05-03T17:03:58.646Z,12.35
2023-05-03T17:06:27.241Z,13.38
2023-05-03T17:08:54.850Z,13.71
2023-05-03T17:11:22.528Z,13.40
2023-05-03T17:13:50.185Z,13.00
2023-05-03T17:16:18.087Z,13.21
2023-05-03T17:18:47.810Z,14.13
2023-05-03T17:21:15.639Z,14.54
2023-05-03T17:23:43.334Z,14.79
2023-05-03T17:26:12.228Z,15.85
2023-05-03T17:28:39.978Z,15.66
2023-05-03T17:31:08.127Z,16.87
2023-05-03T17:33:35.920Z,16.31
2023-05-03T17:36:05.493Z,17.03
2023-05-03T17:38:33.386Z,16.95
2023-05-03T17:41:04.058Z,17.26
2023-05-03T17:43:31.633Z,17.61
2023-05-03T17:46:06.393Z,19.90
2023-05-03T17:48:34.078Z,20.54
2023-05-03T17:51:01.645Z,21.04
2023-05-03T17:53:30.618Z,22.67
2023-05-03T17:55:58.299Z,24.20
2023-05-03T17:58:26.010Z,24.46
2023-05-03T18:00:53.617Z,25.42
2023-05-03T18:03:21.312Z,25.56
2023-05-03T18:05:49.118Z,25.42
2023-05-03T18:08:16.725Z,26.87
2023-05-03T18:10:45.844Z,27.84
2023-05-03T18:13:13.657Z,27.09
2023-05-03T18:15:42.046Z,27.91
2023-05-03T18:18:09.940Z,26.84
2023-05-03T18:20:37.524Z,27.71
2023-05-03T18:23:05.446Z,27.75
2023-05-03T18:25:33.029Z,27.88
2023-05-03T18:28:02.864Z,27.95
2023-05-03T18:30:30.516Z,27.24
2023-05-03T18:32:58.604Z,27.55
2023-05-03T18:35:26.225Z,27.69
2023-05-03T18:37:54.087Z,28.94
2023-05-03T18:40:21.837Z,29.15
2023-05-03T18:42:49.522Z,28.93
2023-05-03T18:45:19.622Z,28.79
2023-05-03T18:47:47.366Z,28.44
2023-05-03T18:50:15.108Z,27.92
2023-05-03T18:52:42.736Z,28.37
2023-05-03T18:55:10.850Z,28.40
2023-05-03T18:57:38.602Z,28.43
2023-05-03T19:00:07.347Z,27.67
2023-05-03T19:02:36.136Z,29.47
2023-05-03T19:05:05.365Z,28.32
2023-05-03T19:07:32.986Z,28.58
2023-05-03T19:12:28.721Z,28.09
2023-05-03T19:14:56.353Z,28.06
2023-05-03T19:17:24.015Z,29.12
2023-05-03T19:19:51.732Z,29.42
2023-05-03T19:22:21.401Z,28.58
2023-05-03T19:24:49.057Z,27.95
2023-05-03T19:27:17.437Z,28.67
2023-05-03T19:29:45.096Z,28.31
2023-05-03T19:32:12.930Z,27.58
2023-05-03T19:34:41.324Z,28.33
2023-05-03T19:37:09.002Z,28.74
2023-05-03T19:39:37.959Z,28.98
2023-05-03T19:42:05.590Z,28.83
2023-05-03T19:44:33.309Z,28.60
2023-05-03T19:47:01.630Z,28.70
2023-05-03T19:49:29.296Z,29.24
2023-05-03T19:51:56.999Z,29.53
2023-05-03T19:54:24.660Z,29.70
2023-05-03T19:56:53.750Z,29.91
2023-05-03T19:59:21.507Z,30.09
2023-05-03T20:01:49.178Z,30.59
2023-05-03T20:04:17.197Z,30.08
2023-05-03T20:06:44.816Z,30.20
2023-05-03T20:09:12.846Z,30.27
2023-05-03T20:11:40.438Z,30.00
2023-05-03T20:14:09.419Z,30.13
2023-05-03T20:16:39.091Z,30.42
2023-05-03T20:19:06.864Z,30.29
2023-05-03T20:21:34.423Z,30.49
2023-05-03T20:24:04.604Z,30.37
2023-05-03T20:26:32.258Z,30.90
2023-05-03T20:28:59.913Z,30.84
2023-05-03T20:31:28.981Z,31.05
2023-05-03T20:33:56.659Z,30.90
2023-05-03T20:36:24.267Z,31.58
2023-05-03T20:38:52.170Z,32.11
2023-05-03T20:41:19.838Z,31.74
2023-05-03T20:43:47.437Z,31.69
2023-05-03T20:46:15.228Z,31.54
2023-05-03T20:48:44.320Z,31.72
2023-05-03T20:51:12.006Z,32.02
2023-05-03T20:53:39.611Z,32.46
2023-05-03T20:56:07.878Z,32.64
2023-05-03T20:58:35.632Z,33.09
2023-05-03T21:01:04.310Z,33.53
2023-05-03T21:03:32.374Z,33.59
2023-05-03T21:06:01.683Z,34.04
2023-05-03T21:08:29.318Z,34.18
2023-05-03T21:10:56.941Z,34.07
2023-05-03T21:13:24.582Z,34.16
2023-05-03T21:15:52.228Z,34.49
2023-05-03T21:18:20.066Z,34.91
2023-05-03T21:20:47.695Z,34.89
2023-05-03T21:23:16.657Z,34.92
2023-05-03T21:25:44.324Z,34.89
2023-05-03T21:28:11.945Z,34.77
2023-05-03T21:30:40.847Z,34.60
2023-05-03T21:33:08.547Z,34.67
2023-05-03T21:35:36.639Z,34.43
2023-05-03T21:38:04.596Z,34.79
2023-05-03T21:40:34.288Z,35.02
2023-05-03T21:43:02.209Z,35.91
2023-05-03T21:45:30.217Z,35.89
2023-05-03T21:47:57.905Z,35.73
2023-05-03T21:50:26.089Z,36.02
2023-05-03T21:52:54.049Z,36.08
2023-05-03T21:55:21.709Z,36.58
2023-05-03T21:57:51.449Z,37.00
2023-05-03T22:00:20.704Z,37.36
2023-05-03T22:06:41.346Z,36.38
2023-05-03T22:09:09.936Z,36.44
2023-05-03T22:11:38.532Z,37.05
2023-05-03T22:14:08.625Z,37.20
2023-05-03T22:16:37.389Z,37.97
2023-05-03T22:19:05.390Z,37.59
2023-05-03T22:21:33.074Z,37.43
2023-05-03T22:24:03.392Z,37.56
2023-05-03T22:26:31.207Z,37.81
2023-05-03T22:28:58.809Z,37.93
2023-05-03T22:31:30.096Z,38.05
2023-05-03T22:33:57.839Z,38.09
2023-05-03T22:36:25.475Z,38.12
2023-05-03T22:38:55.174Z,38.13
2023-05-03T22:41:23.060Z,38.40
2023-05-03T22:43:50.759Z,38.64
2023-05-03T22:46:19.352Z,38.80
2023-05-03T22:48:48.621Z,39.37
2023-05-03T22:51:16.603Z,39.27
2023-05-03T22:53:44.184Z,39.38
2023-05-03T22:56:12.291Z,40.07
2023-05-03T22:58:39.926Z,40.22
2023-05-03T23:01:10.280Z,40.14
2023-05-03T23:03:37.936Z,40.01
2023-05-03T23:06:07.220Z,39.81
2023-05-03T23:08:34.861Z,40.05
2023-05-03T23:11:02.531Z,40.29
2023-05-03T23:13:30.320Z,39.70
2023-05-03T23:15:57.993Z,39.27
2023-05-03T23:18:26.106Z,39.51
2023-05-03T23:20:54.303Z,39.55
2023-05-03T23:23:23.679Z,40.12
2023-05-03T23:25:52.037Z,39.68
2023-05-03T23:28:20.477Z,40.13
2023-05-03T23:30:48.573Z,40.18
2023-05-03T23:33:17.768Z,39.66
2023-05-03T23:35:49.617Z,39.84
2023-05-03T23:38:17.609Z,39.68
2023-05-03T23:40:46.720Z,40.31
2023-05-03T23:43:14.336Z,40.11
2023-05-03T23:45:41.973Z,39.99
2023-05-03T23:48:09.612Z,40.15
2023-05-03T23:50:37.256Z,39.73
2023-05-03T23:53:05.426Z,40.34
2023-05-03T23:55:33.078Z,40.17
2023-05-03T23:58:02.079Z,40.06
